createdAt,value
2022-12-23T00:00:18.196Z,49.80
2022-12-23T00:01:18.232Z,49.60
2022-12-23T00:02:18.285Z,49.90
2022-12-23T00:03:18.255Z,49.30
2022-12-23T00:04:18.291Z,50.10
2022-12-23T00:05:18.157Z,50.60
2022-12-23T00:06:18.161Z,51.20
2022-12-23T00:07:18.132Z,49.40
2022-12-23T00:08:18.124Z,48.40
2022-12-23T00:09:18.110Z,48.10
2022-12-23T00:10:18.089Z,48.90
2022-12-23T00:11:18.127Z,49.70
2022-12-23T00:12:18.061Z,50.60
2022-12-23T00:13:18.068Z,50.00
2022-12-23T00:14:21.688Z,51.50
2022-12-23T00:15:18.044Z,53.00
2022-12-23T00:16:18.148Z,53.20
2022-12-23T00:17:22.438Z,51.50
2022-12-23T00:18:18.014Z,52.00
2022-12-23T00:19:18.032Z,51.30
2022-12-23T00:20:17.995Z,50.80
2022-12-23T00:21:17.972Z,50.00
2022-12-23T00:22:17.966Z,50.90
2022-12-23T00:23:17.934Z,50.60
2022-12-23T00:24:17.986Z,50.80
2022-12-23T00:25:17.921Z,51.60
2022-12-23T00:26:17.919Z,51.00
2022-12-23T00:27:17.901Z,52.20
2022-12-23T00:28:17.901Z,52.80
2022-12-23T00:29:17.899Z,51.70
2022-12-23T00:30:17.880Z,52.20
2022-12-23T00:31:17.883Z,51.00
2022-12-23T00:32:17.889Z,50.60
2022-12-23T00:33:17.857Z,51.60
2022-12-23T00:34:17.825Z,51.60
2022-12-23T00:35:17.834Z,49.80
2022-12-23T00:36:17.955Z,50.80
2022-12-23T00:37:17.777Z,50.50
2022-12-23T00:38:17.788Z,50.80
2022-12-23T00:39:17.772Z,50.90
2022-12-23T00:40:17.768Z,51.40
2022-12-23T00:41:17.765Z,52.60
2022-12-23T00:42:17.734Z,49.90
2022-12-23T00:43:17.711Z,51.00
2022-12-23T00:44:17.738Z,51.00
2022-12-23T00:45:17.685Z,49.70
2022-12-23T00:46:17.758Z,51.10
2022-12-23T00:47:17.698Z,50.20
2022-12-23T00:48:17.665Z,50.80
2022-12-23T00:49:17.637Z,50.40
2022-12-23T00:50:17.655Z,50.70
2022-12-23T00:51:17.614Z,51.00
2022-12-23T00:52:17.661Z,51.40
2022-12-23T00:53:17.614Z,52.50
2022-12-23T00:54:17.612Z,53.00
2022-12-23T00:55:17.580Z,50.90
2022-12-23T00:56:17.579Z,51.50
2022-12-23T00:57:17.597Z,53.20
2022-12-23T00:58:17.809Z,52.30
2022-12-23T00:59:17.530Z,53.70
2022-12-23T01:00:17.529Z,52.70
2022-12-23T01:01:17.590Z,54.30
2022-12-23T01:02:17.661Z,52.70
2022-12-23T01:03:17.547Z,53.30
2022-12-23T01:04:17.495Z,53.60
2022-12-23T01:05:17.479Z,57.10
2022-12-23T01:06:17.465Z,53.80
2022-12-23T01:07:17.469Z,54.10
2022-12-23T01:08:17.446Z,54.50
2022-12-23T01:09:17.451Z,53.50
2022-12-23T01:10:17.421Z,55.30
2022-12-23T01:11:17.394Z,55.40
2022-12-23T01:12:17.431Z,57.00
2022-12-23T01:13:17.369Z,57.90
2022-12-23T01:14:17.371Z,56.30
2022-12-23T01:15:17.355Z,59.00
2022-12-23T01:16:18.064Z,58.20
2022-12-23T01:17:17.514Z,58.10
2022-12-23T01:18:17.326Z,61.50
2022-12-23T01:19:17.341Z,57.90
2022-12-23T01:20:17.312Z,59.00
2022-12-23T01:21:17.278Z,62.40
2022-12-23T01:22:17.291Z,60.70
2022-12-23T01:23:17.269Z,60.60
2022-12-23T01:24:17.299Z,60.30
2022-12-23T01:25:17.252Z,60.60
2022-12-23T01:26:17.242Z,62.50
2022-12-23T01:27:17.217Z,63.50
2022-12-23T01:28:17.213Z,62.90
2022-12-23T01:29:17.221Z,65.30
2022-12-23T01:30:17.199Z,64.00
2022-12-23T01:31:17.300Z,70.10
2022-12-23T01:32:17.288Z,67.20
2022-12-23T01:33:17.150Z,71.50
2022-12-23T01:34:17.178Z,70.80
2022-12-23T01:35:17.152Z,69.50
2022-12-23T01:36:17.131Z,66.10
2022-12-23T01:37:17.114Z,73.50
2022-12-23T01:38:17.153Z,71.50
2022-12-23T01:39:17.088Z,79.10
2022-12-23T01:40:17.124Z,71.80
2022-12-23T01:41:17.097Z,71.80
2022-12-23T01:42:17.083Z,74.00
2022-12-23T01:43:17.057Z,75.40
2022-12-23T01:44:17.035Z,76.50
2022-12-23T01:45:17.019Z,83.30
2022-12-23T01:46:17.109Z,76.40
2022-12-23T01:47:17.012Z,73.20
2022-12-23T01:48:17.018Z,77.30
2022-12-23T01:49:17.002Z,71.90
2022-12-23T01:50:16.961Z,77.80
2022-12-23T01:51:16.951Z,75.10
2022-12-23T01:52:16.947Z,95.20
2022-12-23T01:53:16.924Z,86.30
2022-12-23T01:54:16.967Z,77.20
2022-12-23T01:55:16.898Z,68.10
2022-12-23T01:56:16.931Z,71.90
2022-12-23T01:57:16.875Z,83.00
2022-12-23T01:58:16.893Z,81.60
2022-12-23T01:59:16.859Z,74.90
2022-12-23T02:00:16.852Z,74.90
2022-12-23T02:01:16.917Z,90.00
2022-12-23T02:02:17.016Z,80.30
2022-12-23T02:03:16.827Z,77.80
2022-12-23T02:04:16.841Z,81.60
2022-12-23T02:05:16.781Z,93.60
2022-12-23T02:06:16.785Z,85.10
2022-12-23T02:07:16.764Z,82.30
2022-12-23T02:08:16.795Z,77.20
2022-12-23T02:09:16.739Z,77.60
2022-12-23T02:10:16.750Z,77.70
2022-12-23T02:11:16.743Z,78.70
2022-12-23T02:12:16.761Z,74.30
2022-12-23T02:13:16.693Z,91.20
2022-12-23T02:14:16.694Z,79.70
2022-12-23T02:15:16.675Z,77.90
2022-12-23T02:16:16.718Z,81.90
2022-12-23T02:17:16.717Z,82.50
2022-12-23T02:18:16.654Z,80.40
2022-12-23T02:19:16.625Z,77.50
2022-12-23T02:20:16.630Z,73.00
2022-12-23T02:21:16.618Z,71.70
2022-12-23T02:22:16.609Z,87.40
2022-12-23T02:23:16.629Z,72.00
2022-12-23T02:24:16.579Z,82.80
2022-12-23T02:25:16.601Z,81.40
2022-12-23T02:26:16.564Z,77.00
2022-12-23T02:27:16.548Z,71.90
2022-12-23T02:28:16.544Z,75.30
2022-12-23T02:29:16.513Z,77.70
2022-12-23T02:30:16.530Z,73.60
2022-12-23T02:31:16.578Z,70.40
2022-12-23T02:32:16.492Z,70.10
2022-12-23T02:33:16.472Z,71.70
2022-12-23T02:34:16.466Z,71.90
2022-12-23T02:35:16.450Z,70.40
2022-12-23T02:36:16.483Z,69.20
2022-12-23T02:37:16.416Z,69.80
2022-12-23T02:38:16.461Z,68.60
2022-12-23T02:39:16.397Z,63.40
2022-12-23T02:40:16.395Z,64.00
2022-12-23T02:41:16.412Z,71.30
2022-12-23T02:42:16.421Z,68.40
2022-12-23T02:43:16.357Z,64.90
2022-12-23T02:44:16.393Z,66.70
2022-12-23T02:45:16.329Z,67.60
2022-12-23T02:46:16.422Z,70.20
2022-12-23T02:47:16.319Z,67.90
2022-12-23T02:48:16.315Z,72.10
2022-12-23T02:49:16.313Z,72.10
2022-12-23T02:50:16.285Z,73.40
2022-12-23T02:51:16.317Z,80.70
2022-12-23T02:52:16.286Z,75.50
2022-12-23T02:53:16.250Z,76.80
2022-12-23T02:54:16.283Z,74.40
2022-12-23T02:55:16.221Z,76.90
2022-12-23T02:56:16.224Z,68.90
2022-12-23T02:57:16.211Z,63.90
2022-12-23T02:58:16.196Z,70.10
2022-12-23T02:59:16.207Z,68.60
2022-12-23T03:00:16.199Z,71.20
2022-12-23T03:01:16.239Z,71.00
2022-12-23T03:02:16.405Z,71.00
2022-12-23T03:03:16.261Z,71.40
2022-12-23T03:04:16.132Z,65.40
2022-12-23T03:05:16.137Z,63.40
2022-12-23T03:06:16.642Z,68.60
2022-12-23T03:07:18.620Z,65.70
2022-12-23T03:08:16.091Z,70.70
2022-12-23T03:09:16.055Z,68.80
2022-12-23T03:10:16.086Z,65.80
2022-12-23T03:11:16.035Z,66.50
2022-12-23T03:12:16.042Z,71.50
2022-12-23T03:13:16.015Z,71.50
2022-12-23T03:14:16.048Z,70.10
2022-12-23T03:15:15.991Z,75.00
2022-12-23T03:16:16.054Z,71.90
2022-12-23T03:17:15.975Z,73.20
2022-12-23T03:18:15.984Z,71.20
2022-12-23T03:19:15.943Z,66.40
2022-12-23T03:20:15.979Z,70.70
2022-12-23T03:21:15.968Z,60.00
2022-12-23T03:22:15.930Z,67.90
2022-12-23T03:23:15.922Z,62.50
2022-12-23T03:24:15.904Z,63.30
2022-12-23T03:25:15.885Z,57.10
2022-12-23T03:26:15.917Z,56.00
2022-12-23T03:27:15.855Z,53.80
2022-12-23T03:28:15.862Z,55.50
2022-12-23T03:29:15.829Z,49.50
2022-12-23T03:30:15.844Z,47.40
2022-12-23T03:31:15.882Z,51.80
2022-12-23T03:32:15.813Z,50.40
2022-12-23T03:33:15.790Z,48.60
2022-12-23T03:34:15.806Z,49.90
2022-12-23T03:35:15.764Z,40.60
2022-12-23T03:36:15.770Z,48.20
2022-12-23T03:37:15.774Z,46.80
2022-12-23T03:38:15.757Z,45.10
2022-12-23T03:39:15.713Z,47.50
2022-12-23T03:40:15.725Z,46.20
2022-12-23T03:41:15.693Z,45.20
2022-12-23T03:42:15.733Z,46.50
2022-12-23T03:43:15.681Z,54.90
2022-12-23T03:44:15.683Z,48.90
2022-12-23T03:46:15.728Z,50.30
2022-12-23T03:47:15.662Z,50.10
2022-12-23T03:48:15.621Z,50.00
2022-12-23T03:49:15.621Z,49.50
2022-12-23T03:50:15.608Z,51.30
2022-12-23T03:51:15.587Z,51.60
2022-12-23T03:52:21.012Z,57.00
2022-12-23T03:53:15.570Z,59.20
2022-12-23T03:54:15.596Z,74.00
2022-12-23T03:55:15.549Z,72.60
2022-12-23T03:56:15.549Z,65.10
2022-12-23T03:57:15.521Z,65.70
2022-12-23T03:58:15.537Z,61.90
2022-12-23T03:59:15.503Z,61.40
2022-12-23T04:00:15.522Z,64.40
2022-12-23T04:01:18.005Z,62.70
2022-12-23T04:02:15.865Z,60.10
2022-12-23T04:03:15.452Z,59.50
2022-12-23T04:04:15.545Z,58.80
2022-12-23T04:05:15.422Z,56.90
2022-12-23T04:06:15.433Z,54.60
2022-12-23T04:07:15.446Z,51.40
2022-12-23T04:08:15.405Z,50.50
2022-12-23T04:09:21.688Z,51.60
2022-12-23T04:10:15.469Z,49.60
2022-12-23T04:11:15.356Z,49.50
2022-12-23T04:12:15.377Z,52.70
2022-12-23T04:13:15.336Z,75.30
2022-12-23T04:14:15.337Z,68.40
2022-12-23T04:15:15.343Z,73.70
2022-12-23T04:16:15.373Z,69.80
2022-12-23T04:17:15.307Z,67.30
2022-12-23T04:18:15.286Z,62.90
2022-12-23T04:19:15.298Z,63.60
2022-12-23T04:20:15.284Z,64.00
2022-12-23T04:21:15.257Z,70.10
2022-12-23T04:22:15.288Z,65.10
2022-12-23T04:23:15.249Z,62.20
2022-12-23T04:24:15.223Z,65.50
2022-12-23T04:25:15.244Z,62.30
2022-12-23T04:26:15.198Z,60.00
2022-12-23T04:27:15.228Z,59.20
2022-12-23T04:28:15.210Z,61.20
2022-12-23T04:29:15.171Z,61.70
2022-12-23T04:30:15.182Z,62.10
2022-12-23T04:31:15.184Z,55.10
2022-12-23T04:32:15.147Z,55.50
2022-12-23T04:33:15.136Z,56.40
2022-12-23T04:34:15.100Z,54.70
2022-12-23T04:35:15.155Z,52.70
2022-12-23T04:36:15.075Z,51.40
2022-12-23T04:37:15.071Z,53.80
2022-12-23T04:38:15.066Z,49.20
2022-12-23T04:39:15.047Z,49.20
2022-12-23T04:40:15.085Z,50.00
2022-12-23T04:41:15.726Z,50.90
2022-12-23T04:42:15.035Z,51.90
2022-12-23T04:43:15.011Z,51.10
2022-12-23T04:44:15.002Z,51.40
2022-12-23T04:45:15.025Z,48.20
2022-12-23T04:46:15.151Z,49.70
2022-12-23T04:47:14.961Z,48.10
2022-12-23T04:48:14.995Z,48.10
2022-12-23T04:49:14.944Z,46.10
2022-12-23T04:50:14.923Z,47.00
2022-12-23T04:51:14.920Z,47.10
2022-12-23T04:52:14.937Z,45.70
2022-12-23T04:53:14.899Z,45.50
2022-12-23T04:54:14.879Z,47.30
2022-12-23T04:55:14.889Z,46.10
2022-12-23T04:56:14.881Z,45.40
2022-12-23T04:57:14.859Z,47.70
2022-12-23T04:58:14.830Z,44.30
2022-12-23T04:59:14.837Z,46.20
2022-12-23T05:00:14.816Z,46.80
2022-12-23T05:01:14.925Z,45.80
2022-12-23T05:02:15.093Z,45.80
2022-12-23T05:03:14.886Z,45.20
2022-12-23T05:04:14.809Z,44.60
2022-12-23T05:05:14.768Z,44.20
2022-12-23T05:06:14.800Z,45.10
2022-12-23T05:07:14.787Z,45.90
2022-12-23T05:08:14.717Z,45.10
2022-12-23T05:09:14.724Z,45.40
2022-12-23T05:10:14.705Z,43.90
2022-12-23T05:11:14.702Z,46.50
2022-12-23T05:12:14.672Z,46.20
2022-12-23T05:13:14.776Z,45.30
2022-12-23T05:14:14.653Z,44.10
2022-12-23T05:15:15.641Z,45.70
2022-12-23T05:16:14.707Z,44.50
2022-12-23T05:17:14.635Z,44.90
2022-12-23T05:18:14.640Z,44.90
2022-12-23T05:19:14.620Z,44.60
2022-12-23T05:20:14.589Z,44.20
2022-12-23T05:21:14.579Z,43.80
2022-12-23T05:22:14.571Z,43.90
2022-12-23T05:23:14.605Z,45.20
2022-12-23T05:24:14.570Z,44.40
2022-12-23T05:25:14.540Z,43.30
2022-12-23T05:26:14.526Z,42.40
2022-12-23T05:27:14.514Z,42.70
2022-12-23T05:28:14.496Z,42.70
2022-12-23T05:29:14.525Z,42.30
2022-12-23T05:30:14.467Z,42.30
2022-12-23T05:31:14.527Z,42.00
2022-12-23T05:32:15.127Z,40.80
2022-12-23T05:33:14.527Z,40.70
2022-12-23T05:34:14.416Z,40.90
2022-12-23T05:35:14.428Z,40.30
2022-12-23T05:36:14.401Z,40.00
2022-12-23T05:37:14.451Z,40.80
2022-12-23T05:38:14.376Z,40.10
2022-12-23T05:39:14.386Z,41.60
2022-12-23T05:40:18.467Z,41.60
2022-12-23T05:41:14.361Z,41.60
2022-12-23T05:42:14.335Z,40.70
2022-12-23T05:43:14.330Z,42.00
2022-12-23T05:44:14.345Z,41.10
2022-12-23T05:45:14.311Z,40.90
2022-12-23T05:46:14.389Z,39.90
2022-12-23T05:47:14.295Z,40.70
2022-12-23T05:48:14.267Z,40.90
2022-12-23T05:49:14.340Z,41.00
2022-12-23T05:50:14.244Z,41.90
2022-12-23T05:51:14.258Z,40.10
2022-12-23T05:52:14.228Z,40.30
2022-12-23T05:53:14.227Z,39.90
2022-12-23T05:54:14.231Z,41.10
2022-12-23T05:55:14.256Z,41.00
2022-12-23T05:56:14.172Z,40.30
2022-12-23T05:57:14.188Z,40.30
2022-12-23T05:58:14.151Z,40.70
2022-12-23T05:59:14.162Z,39.70
2022-12-23T06:00:14.164Z,41.00
2022-12-23T06:01:14.150Z,38.90
2022-12-23T06:02:14.325Z,40.40
2022-12-23T06:03:14.322Z,40.80
2022-12-23T06:04:14.217Z,40.60
2022-12-23T06:05:14.127Z,40.70
2022-12-23T06:06:14.098Z,41.10
2022-12-23T06:07:14.063Z,39.60
2022-12-23T06:08:14.046Z,40.40
2022-12-23T06:09:14.049Z,40.50
2022-12-23T06:10:14.023Z,40.80
2022-12-23T06:11:14.046Z,39.60
2022-12-23T06:12:14.003Z,38.20
2022-12-23T06:13:13.991Z,39.00
2022-12-23T06:14:13.973Z,40.20
2022-12-23T06:15:13.983Z,39.90
2022-12-23T06:16:14.019Z,38.80
2022-12-23T06:17:13.957Z,39.10
2022-12-23T06:18:13.936Z,38.10
2022-12-23T06:19:13.939Z,38.60
2022-12-23T06:20:20.360Z,38.40
2022-12-23T06:21:13.952Z,38.40
2022-12-23T06:22:13.887Z,37.30
2022-12-23T06:23:13.893Z,38.90
2022-12-23T06:24:13.859Z,36.50
2022-12-23T06:25:13.882Z,38.30
2022-12-23T06:26:13.891Z,37.70
2022-12-23T06:27:13.836Z,37.10
2022-12-23T06:28:13.827Z,37.70
2022-12-23T06:29:19.814Z,37.50
2022-12-23T06:30:19.824Z,38.10
2022-12-23T06:31:20.366Z,37.80
2022-12-23T06:32:13.882Z,36.70
2022-12-23T06:33:13.777Z,37.90
2022-12-23T06:34:13.748Z,35.70
2022-12-23T06:35:13.755Z,36.50
2022-12-23T06:36:13.726Z,35.90
2022-12-23T06:37:13.756Z,36.50
2022-12-23T06:38:13.727Z,36.40
2022-12-23T06:39:13.709Z,35.10
2022-12-23T06:40:13.681Z,34.90
2022-12-23T06:41:13.726Z,34.50
2022-12-23T06:42:13.683Z,34.30
2022-12-23T06:43:13.678Z,33.70
2022-12-23T06:44:13.677Z,34.70
2022-12-23T06:45:13.697Z,35.10
2022-12-23T06:46:13.778Z,33.50
2022-12-23T06:47:13.633Z,33.60
2022-12-23T06:48:13.644Z,33.90
2022-12-23T06:49:14.063Z,33.00
2022-12-23T06:50:13.578Z,32.40
2022-12-23T06:51:13.656Z,31.50
2022-12-23T06:52:13.581Z,32.50
2022-12-23T06:53:13.591Z,32.60
2022-12-23T06:54:13.523Z,31.80
2022-12-23T06:55:13.576Z,32.40
2022-12-23T06:56:13.502Z,32.20
2022-12-23T06:57:13.536Z,30.70
2022-12-23T06:58:13.482Z,29.90
2022-12-23T06:59:13.476Z,29.90
2022-12-23T07:00:13.516Z,30.50
2022-12-23T07:01:13.487Z,30.10
2022-12-23T07:02:13.524Z,29.90
2022-12-23T07:03:13.641Z,30.00
2022-12-23T07:04:13.452Z,30.30
2022-12-23T07:05:13.442Z,30.10
2022-12-23T07:06:13.434Z,30.00
2022-12-23T07:07:13.408Z,30.40
2022-12-23T07:08:13.417Z,31.30
2022-12-23T07:09:13.376Z,30.60
2022-12-23T07:10:13.386Z,31.10
2022-12-23T07:11:13.338Z,28.90
2022-12-23T07:12:13.361Z,31.20
2022-12-23T07:13:13.337Z,31.10
2022-12-23T07:14:13.336Z,31.00
2022-12-23T07:15:13.304Z,29.50
2022-12-23T07:16:13.385Z,30.80
2022-12-23T07:17:13.416Z,31.80
2022-12-23T07:18:13.298Z,31.20
2022-12-23T07:19:13.257Z,31.50
2022-12-23T07:20:13.222Z,30.90
2022-12-23T07:21:21.344Z,30.60
2022-12-23T07:22:13.254Z,30.10
2022-12-23T07:23:13.224Z,30.50
2022-12-23T07:24:13.190Z,30.20
2022-12-23T07:25:13.210Z,30.30
2022-12-23T07:26:13.165Z,30.70
2022-12-23T07:27:13.206Z,30.20
2022-12-23T07:28:13.143Z,30.50
2022-12-23T07:29:13.139Z,29.00
2022-12-23T07:30:13.116Z,28.90
2022-12-23T07:31:13.172Z,29.30
2022-12-23T07:32:13.221Z,29.80
2022-12-23T07:33:13.107Z,29.80
2022-12-23T07:34:13.078Z,30.10
2022-12-23T07:35:13.110Z,28.00
2022-12-23T07:36:13.060Z,29.70
2022-12-23T07:37:13.048Z,28.80
2022-12-23T07:38:13.028Z,30.30
2022-12-23T07:39:13.034Z,30.30
2022-12-23T07:40:13.057Z,28.60
2022-12-23T07:41:13.047Z,29.40
2022-12-23T07:43:12.995Z,30.30
2022-12-23T07:44:12.979Z,28.30
2022-12-23T07:45:13.674Z,30.00
2022-12-23T07:46:13.054Z,29.70
2022-12-23T07:47:12.960Z,30.60
2022-12-23T07:48:12.917Z,29.30
2022-12-23T07:49:12.914Z,30.50
2022-12-23T07:50:12.917Z,30.80
2022-12-23T07:51:12.930Z,30.90
2022-12-23T07:52:12.895Z,28.90
2022-12-23T07:53:12.856Z,29.80
2022-12-23T07:54:13.401Z,29.50
2022-12-23T07:55:12.840Z,25.10
2022-12-23T07:56:12.910Z,26.10
2022-12-23T07:57:12.818Z,23.40
2022-12-23T07:58:12.814Z,24.50
2022-12-23T07:59:12.796Z,23.70
2022-12-23T08:00:12.827Z,26.80
2022-12-23T08:01:12.838Z,29.30
2022-12-23T08:02:13.153Z,26.50
2022-12-23T08:03:12.917Z,27.20
2022-12-23T08:04:12.784Z,26.00
2022-12-23T08:05:12.882Z,24.90
2022-12-23T08:06:12.740Z,24.40
2022-12-23T08:07:12.703Z,24.70
2022-12-23T08:08:12.704Z,26.80
2022-12-23T08:09:12.708Z,26.30
2022-12-23T08:10:12.710Z,24.30
2022-12-23T08:11:12.665Z,26.20
2022-12-23T08:12:12.658Z,23.40
2022-12-23T08:13:12.634Z,23.40
2022-12-23T08:14:12.680Z,23.50
2022-12-23T08:15:12.653Z,24.40
2022-12-23T08:16:12.700Z,24.10
2022-12-23T08:17:12.674Z,25.00
2022-12-23T08:18:12.595Z,24.40
2022-12-23T08:19:12.577Z,24.80
2022-12-23T08:20:12.602Z,24.90
2022-12-23T08:21:12.545Z,25.60
2022-12-23T08:22:12.622Z,26.80
2022-12-23T08:23:12.525Z,25.90
2022-12-23T08:24:12.573Z,26.20
2022-12-23T08:25:12.511Z,26.40
2022-12-23T08:26:12.501Z,26.30
2022-12-23T08:27:12.521Z,24.60
2022-12-23T08:28:12.483Z,24.60
2022-12-23T08:29:12.461Z,25.40
2022-12-23T08:30:12.451Z,25.30
2022-12-23T08:31:12.506Z,25.30
2022-12-23T08:32:12.456Z,23.80
2022-12-23T08:33:12.422Z,24.80
2022-12-23T08:34:12.696Z,24.20
2022-12-23T08:35:12.389Z,23.60
2022-12-23T08:36:16.088Z,23.40
2022-12-23T08:37:12.381Z,23.00
2022-12-23T08:38:12.371Z,22.80
2022-12-23T08:39:12.379Z,21.80
2022-12-23T08:40:12.348Z,21.60
2022-12-23T08:41:12.319Z,21.20
2022-12-23T08:42:12.333Z,21.10
2022-12-23T08:43:12.302Z,21.20
2022-12-23T08:44:12.349Z,20.40
2022-12-23T08:45:12.271Z,21.20
2022-12-23T08:46:12.382Z,21.50
2022-12-23T08:47:12.249Z,20.60
2022-12-23T08:48:12.254Z,20.10
2022-12-23T08:49:12.232Z,19.90
2022-12-23T08:50:12.238Z,20.30
2022-12-23T08:51:12.265Z,20.20
2022-12-23T08:52:12.237Z,19.60
2022-12-23T08:53:12.185Z,18.90
2022-12-23T08:54:12.224Z,18.90
2022-12-23T08:55:12.164Z,18.90
2022-12-23T08:56:12.182Z,18.50
2022-12-23T08:57:12.156Z,18.70
2022-12-23T08:58:12.145Z,18.00
2022-12-23T08:59:18.237Z,18.00
2022-12-23T09:00:12.126Z,18.40
2022-12-23T09:01:12.220Z,18.30
2022-12-23T09:02:12.373Z,19.50
2022-12-23T09:03:12.135Z,19.60
2022-12-23T09:04:12.163Z,18.90
2022-12-23T09:05:12.045Z,18.10
2022-12-23T09:06:12.054Z,17.00
2022-12-23T09:07:12.070Z,17.00
2022-12-23T09:08:12.027Z,17.40
2022-12-23T09:09:12.039Z,17.30
2022-12-23T09:10:12.044Z,16.60
2022-12-23T09:11:11.987Z,14.80
2022-12-23T09:12:12.046Z,14.00
2022-12-23T09:13:16.275Z,14.90
2022-12-23T09:14:12.002Z,14.70
2022-12-23T09:15:12.653Z,12.90
2022-12-23T09:16:11.990Z,12.90
2022-12-23T09:17:11.914Z,10.50
2022-12-23T09:18:11.927Z,10.90
2022-12-23T09:19:11.933Z,10.80
2022-12-23T09:20:11.884Z,10.50
2022-12-23T09:21:11.871Z,9.80
2022-12-23T09:22:11.880Z,9.00
2022-12-23T09:23:11.850Z,8.70
2022-12-23T09:24:11.891Z,9.20
2022-12-23T09:25:11.827Z,8.80
2022-12-23T09:26:11.824Z,8.40
2022-12-23T09:27:11.810Z,8.60
2022-12-23T09:28:11.805Z,7.80
2022-12-23T09:29:12.648Z,7.70
2022-12-23T09:30:11.788Z,7.50
2022-12-23T09:31:11.875Z,6.60
2022-12-23T09:32:11.751Z,6.60
2022-12-23T09:33:11.750Z,6.80
2022-12-23T09:34:11.743Z,6.40
2022-12-23T09:35:11.747Z,6.60
2022-12-23T09:36:11.720Z,6.90
2022-12-23T09:37:11.696Z,7.20
2022-12-23T09:38:11.702Z,7.50
2022-12-23T09:39:11.935Z,6.80
2022-12-23T09:40:11.703Z,6.30
2022-12-23T09:41:11.651Z,5.30
2022-12-23T09:42:11.645Z,6.00
2022-12-23T09:43:11.632Z,5.80
2022-12-23T09:44:11.625Z,5.80
2022-12-23T09:45:11.627Z,5.80
2022-12-23T09:46:11.699Z,5.60
2022-12-23T09:47:11.585Z,6.20
2022-12-23T09:48:11.572Z,7.20
2022-12-23T09:49:11.578Z,8.40
2022-12-23T09:50:11.586Z,6.90
2022-12-23T09:51:11.611Z,9.00
2022-12-23T09:52:11.530Z,11.20
2022-12-23T09:53:11.502Z,11.70
2022-12-23T09:54:16.582Z,11.00
2022-12-23T09:55:11.488Z,12.20
2022-12-23T09:56:11.519Z,11.20
2022-12-23T09:57:11.460Z,12.50
2022-12-23T09:58:11.519Z,11.10
2022-12-23T09:59:11.437Z,11.50
2022-12-23T10:00:11.465Z,12.20
2022-12-23T10:01:11.421Z,11.90
2022-12-23T10:02:11.589Z,12.10
2022-12-23T10:03:11.821Z,11.80
2022-12-23T10:04:11.549Z,11.10
2022-12-23T10:05:11.399Z,11.60
2022-12-23T10:06:11.400Z,13.30
2022-12-23T10:07:11.387Z,14.60
2022-12-23T10:08:11.359Z,15.20
2022-12-23T10:09:11.337Z,15.50
2022-12-23T10:10:11.339Z,15.00
2022-12-23T10:11:11.306Z,15.50
2022-12-23T10:12:11.346Z,15.50
2022-12-23T10:13:11.280Z,13.90
2022-12-23T10:14:11.283Z,14.90
2022-12-23T10:15:11.261Z,14.50
2022-12-23T10:16:11.324Z,14.40
2022-12-23T10:17:11.238Z,14.60
2022-12-23T10:18:11.265Z,15.10
2022-12-23T10:19:11.248Z,15.30
2022-12-23T10:20:11.262Z,15.40
2022-12-23T10:21:11.203Z,15.20
2022-12-23T10:22:11.188Z,15.00
2022-12-23T10:23:11.175Z,15.80
2022-12-23T10:24:11.204Z,14.30
2022-12-23T10:25:11.193Z,13.70
2022-12-23T10:26:11.185Z,14.70
2022-12-23T10:27:11.162Z,15.40
2022-12-23T10:28:11.169Z,15.60
2022-12-23T10:29:15.464Z,14.40
2022-12-23T10:30:34.208Z,15.00
2022-12-23T10:31:38.699Z,13.90
2022-12-23T10:32:11.127Z,14.40
2022-12-23T10:33:11.060Z,14.90
2022-12-23T10:34:11.083Z,14.80
2022-12-23T10:35:11.032Z,15.00
2022-12-23T10:36:11.133Z,13.80
2022-12-23T10:37:11.190Z,13.70
2022-12-23T10:38:11.001Z,13.70
2022-12-23T10:39:11.040Z,13.80
2022-12-23T10:40:11.059Z,13.50
2022-12-23T10:41:10.984Z,13.80
2022-12-23T10:42:10.999Z,13.10
2022-12-23T10:43:10.955Z,14.20
2022-12-23T10:44:10.978Z,14.40
2022-12-23T10:45:10.939Z,14.60
2022-12-23T10:46:10.955Z,14.80
2022-12-23T10:47:11.123Z,15.50
2022-12-23T10:48:14.087Z,14.30
2022-12-23T10:49:10.935Z,15.40
2022-12-23T10:50:10.873Z,14.40
2022-12-23T10:51:10.862Z,14.60
2022-12-23T10:52:10.840Z,14.00
2022-12-23T10:53:10.839Z,15.40
2022-12-23T10:54:10.855Z,14.30
2022-12-23T10:55:10.820Z,14.60
2022-12-23T10:56:10.803Z,14.80
2022-12-23T10:57:10.809Z,14.30
2022-12-23T10:58:10.803Z,14.40
2022-12-23T10:59:10.780Z,15.50
2022-12-23T11:00:10.783Z,14.50
2022-12-23T11:01:18.635Z,14.20
2022-12-23T11:02:10.900Z,14.10
2022-12-23T11:03:10.917Z,13.50
2022-12-23T11:04:10.736Z,13.70
2022-12-23T11:05:10.756Z,13.00
2022-12-23T11:06:10.684Z,12.70
2022-12-23T11:07:42.905Z,13.00
2022-12-23T11:08:10.711Z,12.80
2022-12-23T11:09:10.663Z,12.20
2022-12-23T11:10:10.675Z,12.50
2022-12-23T11:11:11.179Z,11.60
2022-12-23T11:12:10.637Z,11.10
2022-12-23T11:13:10.628Z,11.60
2022-12-23T11:14:10.597Z,10.80
2022-12-23T11:15:10.602Z,11.10
2022-12-23T11:16:10.725Z,11.30
2022-12-23T11:17:10.585Z,10.00
2022-12-23T11:18:10.586Z,9.80
2022-12-23T11:19:10.546Z,8.60
2022-12-23T11:20:10.608Z,8.80
2022-12-23T11:21:11.549Z,8.20
2022-12-23T11:22:10.504Z,8.20
2022-12-23T11:23:10.519Z,7.90
2022-12-23T11:24:10.656Z,6.00
2022-12-23T11:25:10.487Z,5.90
2022-12-23T11:26:10.488Z,7.20
2022-12-23T11:27:10.476Z,6.30
2022-12-23T11:28:10.452Z,6.40
2022-12-23T11:29:10.468Z,5.80
2022-12-23T11:30:10.420Z,5.00
2022-12-23T11:31:10.457Z,5.50
2022-12-23T11:32:10.430Z,4.40
2022-12-23T11:33:10.436Z,3.70
2022-12-23T11:34:10.415Z,2.40
2022-12-23T11:35:10.433Z,1.90
2022-12-23T11:36:10.384Z,2.40
2022-12-23T11:37:11.158Z,1.70
2022-12-23T11:38:10.326Z,2.00
2022-12-23T11:39:10.401Z,2.10
2022-12-23T11:40:10.297Z,1.90
2022-12-23T11:41:10.302Z,1.90
2022-12-23T11:42:10.357Z,1.70
2022-12-23T11:43:10.382Z,1.60
2022-12-23T11:44:10.320Z,1.80
2022-12-23T11:45:10.266Z,2.00
2022-12-23T11:46:10.281Z,1.80
2022-12-23T11:47:10.240Z,2.20
2022-12-23T11:48:10.209Z,2.70
2022-12-23T11:49:10.243Z,2.70
2022-12-23T11:50:10.195Z,2.80
2022-12-23T11:51:10.197Z,2.90
2022-12-23T11:52:10.197Z,3.10
2022-12-23T11:53:10.172Z,3.20
2022-12-23T11:54:10.181Z,3.00
2022-12-23T11:55:10.145Z,3.10
2022-12-23T11:56:10.120Z,3.90
2022-12-23T11:57:10.212Z,4.30
2022-12-23T11:58:10.103Z,4.90
2022-12-23T11:59:10.108Z,4.30
2022-12-23T12:00:10.119Z,4.00
2022-12-23T12:01:10.106Z,5.00
2022-12-23T12:02:10.128Z,4.50
2022-12-23T12:03:10.116Z,4.50
2022-12-23T12:04:10.041Z,4.90
2022-12-23T12:05:10.040Z,5.40
2022-12-23T12:06:10.036Z,5.60
2022-12-23T12:07:10.026Z,5.50
2022-12-23T12:08:09.999Z,6.20
2022-12-23T12:09:10.016Z,6.20
2022-12-23T12:10:10.001Z,6.20
2022-12-23T12:11:09.979Z,5.90
2022-12-23T12:12:09.957Z,5.80
2022-12-23T12:13:09.969Z,5.70
2022-12-23T12:14:09.929Z,5.30
2022-12-23T12:15:09.960Z,5.30
2022-12-23T12:16:09.979Z,5.10
2022-12-23T12:17:10.045Z,5.10
2022-12-23T12:18:09.875Z,4.50
2022-12-23T12:19:09.915Z,5.10
2022-12-23T12:20:09.933Z,4.70
2022-12-23T12:21:09.906Z,4.20
2022-12-23T12:22:09.830Z,4.60
2022-12-23T12:23:09.834Z,4.30
2022-12-23T12:24:18.468Z,4.50
2022-12-23T12:25:09.825Z,4.70
2022-12-23T12:26:09.829Z,4.50
2022-12-23T12:27:09.793Z,5.50
2022-12-23T12:28:09.769Z,5.90
2022-12-23T12:29:09.773Z,5.90
2022-12-23T12:30:09.747Z,5.70
2022-12-23T12:31:09.854Z,5.50
2022-12-23T12:32:09.729Z,5.30
2022-12-23T12:33:09.722Z,5.20
2022-12-23T12:34:09.740Z,5.50
2022-12-23T12:35:09.709Z,5.30
2022-12-23T12:36:09.738Z,5.70
2022-12-23T12:37:09.679Z,5.00
2022-12-23T12:38:09.644Z,4.70
2022-12-23T12:39:09.655Z,4.80
2022-12-23T12:40:09.701Z,4.50
2022-12-23T12:41:09.658Z,4.70
2022-12-23T12:42:09.621Z,4.70
2022-12-23T12:43:09.610Z,4.40
2022-12-23T12:44:09.585Z,5.20
2022-12-23T12:45:09.615Z,4.80
2022-12-23T12:46:09.591Z,4.30
2022-12-23T12:47:28.486Z,3.80
2022-12-23T12:48:17.784Z,4.20
2022-12-23T12:49:09.584Z,4.20
2022-12-23T12:50:09.617Z,4.10
2022-12-23T12:51:09.518Z,4.10
2022-12-23T12:52:09.497Z,4.40
2022-12-23T12:53:09.560Z,4.20
2022-12-23T12:54:09.507Z,4.40
2022-12-23T12:55:09.498Z,4.20
2022-12-23T12:56:09.449Z,4.20
2022-12-23T12:57:09.480Z,4.60
2022-12-23T12:58:09.424Z,4.60